67.3
Current conditions from King Hill
Updated every 5 minutes
 
  Tuesday August 14, 2018

Observations for Westford

Westford

44° 37' 38"N, 73° 02' 29"W, Elevation 850 ft.
Eastern Time

Hourly observations for the last 72 hours

Date Time Temperature (°F) Humi-
dity

(%)
Wind
(mph)
Pressure Rain (in)
Air Dew 6 Hour 1 Hr 3 Hr 6 Hr Day
Alt
(in)
Sea
Level

(mb)
Max Min
14 07:00 66.9 65.7 96 E 0 G 1 29.83 1010.2 0.08
14 06:00 66.3 64.8 95 Calm 29.83 1010.4 0.03 0.08
14 05:00 66.9 65.1 94 Calm 29.84 1010.5 0.05 0.05 0.05
14 04:00 67.5 65.1 92 Calm 29.85 1010.8 0.00
14 03:00 67.7 65.3 92 E 0 G 1 29.86 1011.1 0.00
14 02:00 66.3 64.2 70.9 66.3 93 Calm 29.88 1011.8 0.00
14 01:00 67.4 65.0 92 Calm 29.90 1012.4 0.00
14 00:00 67.6 65.2 92 Calm 29.90 1012.6 0.00
13 23:00 68.6 65.9 91 Calm 29.91 1013.0 0.00
13 22:00 68.2 65.5 91 Calm 29.91 1013.0 0.00
13 21:00 68.5 65.8 91 Calm 29.91 1013.0 0.00
13 20:00 70.9 67.2 83.8 70.9 88 Calm 29.91 1012.9 0.00
13 19:00 75.3 70.1 84 Calm 29.91 1013.0 0.00
13 18:00 77.9 69.3 75 Calm 29.92 1013.3 0.00
13 17:00 76.5 68.8 77 Calm 29.94 1014.1 0.00
13 16:00 78.1 69.9 76 NW 0 G 2 29.95 1014.3 0.00
13 15:00 79.1 68.9 71 NE 0 G 2 29.96 1014.6 0.00
13 14:00 80.4 67.1 82.0 65.6 64 Calm 29.98 1015.2 0.00
13 13:00 79.3 69.1 71 Calm 30.00 1015.9 0.00
13 12:00 78.5 68.7 72 Calm 30.03 1016.8 0.00
13 11:00 76.6 66.9 72 Calm 30.05 1017.7 0.00
13 10:00 76.8 66.7 71 NNE 0 G 1 30.05 1017.6 0.00
13 09:00 72.6 66.1 80 Calm 30.06 1017.8 0.00
13 08:00 65.6 64.4 65.6 59.4 96 Calm 30.06 1017.9 0.00
13 07:00 63.3 62.4 97 Calm 30.07 1018.3 0.00
13 06:00 59.5 58.4 96 Calm 30.06 1018.0 0.00
13 05:00 60.2 59.1 96 Calm 30.06 1017.9 0.00
13 04:00 61.1 60.0 96 Calm 30.06 1018.1 0.00
13 03:00 61.4 60.2 96 Calm 30.07 1018.2 0.00
13 02:00 62.9 61.4 67.8 62.0 95 Calm 30.07 1018.5 0.00
13 01:00 62.3 61.1 96 Calm 30.08 1018.7 0.00
13 00:00 62.9 61.4 95 Calm 30.08 1018.5 0.00
12 23:00 64.0 61.9 93 Calm 30.06 1017.9 0.00
12 22:00 65.5 63.4 93 Calm 30.06 1018.1 0.00
12 21:00 65.0 62.3 91 Calm 30.07 1018.2 0.00
12 20:00 67.8 64.1 76.9 67.8 88 Calm 30.05 1017.8 0.00
12 19:00 71.4 65.6 82 Calm 30.05 1017.7 0.00
12 18:00 72.1 66.0 81 SSW 0 G 2 30.06 1017.8 0.00
12 17:00 74.6 66.9 77 SW 1 G 8 30.06 1017.9 0.00
12 16:00 73.3 68.2 84 Calm 30.05 1017.7 0.00
12 15:00 74.0 67.4 80 Calm 30.06 1017.8 0.00
12 14:00 76.9 68.4 80.3 66.3 75 Calm 30.05 1017.6 0.00
12 13:00 77.7 67.1 70 Calm 30.05 1017.7 0.00
12 12:00 78.6 67.6 69 NNE 0 G 1 30.06 1017.9 0.00
12 11:00 75.8 64.9 69 ENE 0 G 1 30.06 1018.1 0.00
12 10:00 74.0 66.0 76 NE 0 G 1 30.07 1018.4 0.00
12 09:00 72.4 64.8 77 Calm 30.07 1018.3 0.00
12 08:00 66.3 64.2 66.3 57.9 93 Calm 30.05 1017.8 0.00
12 07:00 60.5 59.1 95 Calm 30.03 1017.0 0.00
12 06:00 61.6 60.4 96 Calm 30.02 1016.8 0.00
12 05:00 61.5 60.3 96 Calm 30.01 1016.4 0.00
12 04:00 59.1 58.0 96 Calm 30.01 1016.3 0.00
12 03:00 58.0 56.6 95 Calm 30.01 1016.2 0.00
12 02:00 58.5 57.1 69.7 58.5 95 Calm 30.00 1015.8 0.00
12 01:00 59.0 57.3 94 Calm 30.00 1016.0 0.00
12 00:00 61.3 59.0 92 Calm 29.98 1015.4 0.00
11 23:00 64.1 61.1 90 Calm 29.98 1015.4 0.00
11 22:00 64.8 61.2 88 Calm 29.99 1015.6 0.00
11 21:00 66.2 61.6 85 Calm 29.98 1015.3 0.00
11 20:00 69.6 61.3 79.9 69.6 75 SW 0 G 2 29.96 1014.5 0.00
11 19:00 71.9 62.4 72 SSW 0 G 1 29.95 1014.2 0.00
11 18:00 73.3 63.7 72 Calm 29.94 1013.9 0.00
11 17:00 75.4 63.7 67 SE 0 G 1 29.93 1013.6 0.00
11 16:00 78.1 63.1 60 SSW 0 G 6 29.94 1013.8 0.00
11 15:00 79.2 62.7 57 ESE 0 G 8 29.95 1014.1 0.00
11 14:00 78.1 61.6 78.2 57.6 57 S 0 G 5 29.96 1014.5 0.00
11 13:00 76.8 58.9 54 SSE 0 G 2 29.97 1014.8 0.00
11 12:00 76.8 59.4 55 WSW 0 G 5 29.97 1014.9 0.00
11 11:00 73.2 60.3 64 Calm 29.97 1015.0 0.00
11 10:00 67.9 59.7 75 Calm 29.97 1014.8 0.00
11 09:00 64.8 60.2 85 Calm 29.97 1014.8 0.00
11 08:00 57.6 56.8 57.6 48.3 97 Calm 29.96 1014.7 0.00

Data generated by WxSolution Version 1.9.1.6, Build 2018.07.01.


 
 
Current Radar Loop:

Copyright © WestfordWeather.net 2007-2018. All rights reserved.